ANA1636 RJOO-RJOM
Flight info
| Callsign | ANA1636 |
|---|---|
| Flight time | 0h 41m |
| Altitude | 20000 |
| Route | TIGER SUMAR AYAME SETOH ONOPA WASYU Y28 BAMBO Y283 ITUKI |
| Aircraft | DH8D/M-SDE2E3FGRY/H |
Departure
| Time | 2026-04-14 21:21 |
|---|---|
| Airport | Osaka Itami International Airport (RJOO) |
Arrival
| Time | 2026-04-14 22:03 |
|---|---|
| Airport | Matsuyama Airport (RJOM) |
| Time | Latitude | Longitude | Altitude | Speed | Heading |
|---|---|---|---|---|---|
| 2026-04-14 20:51 | 34.79358 | 135.43596 | 62 ft | 0 kts | 91° |
| 2026-04-14 21:18 | 34.79357 | 135.43634 | 62 ft | 1 kts | 91° |
| 2026-04-14 21:18 | 34.79315 | 135.43651 | 60 ft | 11 kts | 226° |
| 2026-04-14 21:18 | 34.79285 | 135.43553 | 58 ft | 13 kts | 256° |
| 2026-04-14 21:18 | 34.79223 | 135.43468 | 55 ft | 8 kts | 216° |
| 2026-04-14 21:19 | 34.79199 | 135.43442 | 54 ft | 3 kts | 263° |
| 2026-04-14 21:19 | 34.79243 | 135.43402 | 56 ft | 14 kts | 317° |
| 2026-04-14 21:19 | 34.79300 | 135.43321 | 60 ft | 11 kts | 315° |
| 2026-04-14 21:19 | 34.79366 | 135.43239 | 62 ft | 15 kts | 311° |
| 2026-04-14 21:20 | 34.79364 | 135.43131 | 62 ft | 15 kts | 225° |
| 2026-04-14 21:20 | 34.79284 | 135.43036 | 60 ft | 16 kts | 223° |
| 2026-04-14 21:20 | 34.79205 | 135.42941 | 59 ft | 16 kts | 226° |
| 2026-04-14 21:20 | 34.79098 | 135.42925 | 57 ft | 15 kts | 157° |
| 2026-04-14 21:21 | 34.79001 | 135.43034 | 54 ft | 40 kts | 133° |
| 2026-04-14 21:21 | 34.78564 | 135.43559 | 44 ft | 130 kts | 135° |
| 2026-04-14 21:21 | 34.77867 | 135.44333 | 461 ft | 145 kts | 135° |
| 2026-04-14 21:21 | 34.77076 | 135.45210 | 997 ft | 163 kts | 133° |
| 2026-04-14 21:22 | 34.76032 | 135.45779 | 1548 ft | 184 kts | 178° |
| 2026-04-14 21:22 | 34.74892 | 135.45108 | 2111 ft | 198 kts | 218° |
| 2026-04-14 21:22 | 34.73904 | 135.43887 | 2791 ft | 201 kts | 221° |
| 2026-04-14 21:22 | 34.72970 | 135.42668 | 3474 ft | 202 kts | 222° |
| 2026-04-14 21:23 | 34.72033 | 135.41417 | 4185 ft | 201 kts | 223° |
| 2026-04-14 21:23 | 34.71110 | 135.40189 | 4901 ft | 201 kts | 224° |
| 2026-04-14 21:23 | 34.70162 | 135.38954 | 5615 ft | 199 kts | 221° |
| 2026-04-14 21:23 | 34.69229 | 135.37735 | 6389 ft | 196 kts | 221° |
| 2026-04-14 21:24 | 34.68334 | 135.36572 | 7216 ft | 190 kts | 223° |
| 2026-04-14 21:24 | 34.67434 | 135.35414 | 7829 ft | 194 kts | 229° |
| 2026-04-14 21:24 | 34.66851 | 135.33934 | 8415 ft | 200 kts | 251° |
| 2026-04-14 21:24 | 34.66480 | 135.32289 | 9085 ft | 201 kts | 254° |
| 2026-04-14 21:25 | 34.66118 | 135.30679 | 9718 ft | 202 kts | 254° |
| 2026-04-14 21:25 | 34.65846 | 135.29033 | 10309 ft | 203 kts | 270° |
| 2026-04-14 21:25 | 34.66083 | 135.27333 | 10771 ft | 215 kts | 282° |
| 2026-04-14 21:25 | 34.66460 | 135.25438 | 10909 ft | 240 kts | 283° |
| 2026-04-14 21:26 | 34.66857 | 135.23445 | 11303 ft | 249 kts | 283° |
| 2026-04-14 21:26 | 34.67265 | 135.21372 | 11858 ft | 252 kts | 283° |
| 2026-04-14 21:26 | 34.67665 | 135.19333 | 12382 ft | 252 kts | 283° |
| 2026-04-14 21:26 | 34.68070 | 135.17235 | 12920 ft | 253 kts | 283° |
| 2026-04-14 21:27 | 34.68467 | 135.15189 | 13488 ft | 250 kts | 283° |
| 2026-04-14 21:27 | 34.68864 | 135.13147 | 13941 ft | 253 kts | 283° |
| 2026-04-14 21:27 | 34.69265 | 135.11070 | 14408 ft | 253 kts | 283° |
| 2026-04-14 21:27 | 34.69667 | 135.08986 | 14832 ft | 255 kts | 282° |
| 2026-04-14 21:28 | 34.70066 | 135.06912 | 15351 ft | 253 kts | 282° |
| 2026-04-14 21:28 | 34.70468 | 135.04816 | 15731 ft | 257 kts | 282° |
| 2026-04-14 21:28 | 34.70822 | 135.02686 | 16101 ft | 257 kts | 274° |
| 2026-04-14 21:28 | 34.70625 | 135.00549 | 16495 ft | 259 kts | 258° |
| 2026-04-14 21:29 | 34.70213 | 134.98402 | 16911 ft | 259 kts | 258° |
| 2026-04-14 21:29 | 34.69807 | 134.96301 | 17317 ft | 257 kts | 258° |
| 2026-04-14 21:29 | 34.69396 | 134.94168 | 17623 ft | 260 kts | 258° |
| 2026-04-14 21:29 | 34.68986 | 134.92024 | 17928 ft | 262 kts | 258° |
| 2026-04-14 21:30 | 34.68573 | 134.89865 | 18310 ft | 261 kts | 258° |
| 2026-04-14 21:30 | 34.68169 | 134.87746 | 18693 ft | 260 kts | 258° |
| 2026-04-14 21:30 | 34.67761 | 134.85602 | 18979 ft | 262 kts | 258° |
| 2026-04-14 21:30 | 34.67360 | 134.83496 | 19228 ft | 264 kts | 258° |
| 2026-04-14 21:31 | 34.66944 | 134.81305 | 19593 ft | 263 kts | 258° |
| 2026-04-14 21:31 | 34.66539 | 134.79175 | 19818 ft | 266 kts | 258° |
| 2026-04-14 21:31 | 34.66122 | 134.76979 | 19887 ft | 274 kts | 258° |
| 2026-04-14 21:31 | 34.65689 | 134.74699 | 19896 ft | 282 kts | 258° |
| 2026-04-14 21:32 | 34.65245 | 134.72368 | 19899 ft | 290 kts | 258° |
| 2026-04-14 21:32 | 34.64782 | 134.69933 | 19903 ft | 296 kts | 258° |
| 2026-04-14 21:32 | 34.64317 | 134.67494 | 19894 ft | 300 kts | 258° |
| 2026-04-14 21:32 | 34.63845 | 134.65025 | 19894 ft | 303 kts | 258° |
| 2026-04-14 21:33 | 34.63364 | 134.62509 | 19886 ft | 307 kts | 258° |
| 2026-04-14 21:33 | 34.62878 | 134.59970 | 19898 ft | 310 kts | 258° |
| 2026-04-14 21:33 | 34.62394 | 134.57443 | 19895 ft | 312 kts | 258° |
| 2026-04-14 21:33 | 34.61897 | 134.54848 | 19899 ft | 314 kts | 258° |
| 2026-04-14 21:34 | 34.61402 | 134.52275 | 19891 ft | 315 kts | 258° |
| 2026-04-14 21:34 | 34.60905 | 134.49687 | 19892 ft | 315 kts | 258° |
| 2026-04-14 21:34 | 34.60405 | 134.47084 | 19892 ft | 314 kts | 258° |
| 2026-04-14 21:34 | 34.59907 | 134.44502 | 19900 ft | 315 kts | 258° |
| 2026-04-14 21:35 | 34.59403 | 134.41882 | 19906 ft | 316 kts | 258° |
| 2026-04-14 21:35 | 34.58908 | 134.39319 | 19891 ft | 316 kts | 258° |
| 2026-04-14 21:35 | 34.58402 | 134.36702 | 19893 ft | 315 kts | 258° |
| 2026-04-14 21:35 | 34.57907 | 134.34146 | 19903 ft | 316 kts | 257° |
| 2026-04-14 21:36 | 34.57434 | 134.31702 | 19899 ft | 316 kts | 257° |
| 2026-04-14 21:36 | 34.56937 | 134.29140 | 19896 ft | 314 kts | 257° |
| 2026-04-14 21:36 | 34.56439 | 134.26569 | 19900 ft | 314 kts | 257° |
| 2026-04-14 21:36 | 34.55941 | 134.24000 | 19896 ft | 314 kts | 258° |
| 2026-04-14 21:37 | 34.55443 | 134.21394 | 19895 ft | 315 kts | 258° |
| 2026-04-14 21:37 | 34.54942 | 134.18829 | 19899 ft | 316 kts | 257° |
| 2026-04-14 21:37 | 34.54429 | 134.16211 | 19892 ft | 317 kts | 257° |
| 2026-04-14 21:37 | 34.53989 | 134.13614 | 19892 ft | 318 kts | 262° |
| 2026-04-14 21:38 | 34.53733 | 134.10927 | 19891 ft | 316 kts | 264° |
| 2026-04-14 21:38 | 34.53507 | 134.08285 | 19902 ft | 315 kts | 264° |
| 2026-04-14 21:38 | 34.53283 | 134.05673 | 19892 ft | 313 kts | 264° |
| 2026-04-14 21:38 | 34.53058 | 134.03073 | 19897 ft | 312 kts | 264° |
| 2026-04-14 21:39 | 34.52829 | 134.00447 | 19887 ft | 312 kts | 264° |
| 2026-04-14 21:39 | 34.52600 | 133.97829 | 19895 ft | 310 kts | 264° |
| 2026-04-14 21:39 | 34.52377 | 133.95299 | 19892 ft | 309 kts | 264° |
| 2026-04-14 21:39 | 34.52149 | 133.92720 | 19895 ft | 311 kts | 264° |
| 2026-04-14 21:40 | 34.51917 | 133.90100 | 19894 ft | 311 kts | 264° |
| 2026-04-14 21:40 | 34.51685 | 133.87505 | 19897 ft | 311 kts | 264° |
| 2026-04-14 21:40 | 34.51454 | 133.84930 | 19894 ft | 309 kts | 264° |
| 2026-04-14 21:40 | 34.51221 | 133.82336 | 19893 ft | 309 kts | 264° |
| 2026-04-14 21:41 | 34.50988 | 133.79750 | 19887 ft | 310 kts | 264° |
| 2026-04-14 21:41 | 34.50756 | 133.77168 | 19884 ft | 311 kts | 264° |
| 2026-04-14 21:41 | 34.50518 | 133.74548 | 19876 ft | 313 kts | 264° |
| 2026-04-14 21:41 | 34.50279 | 133.71909 | 19877 ft | 314 kts | 264° |
| 2026-04-14 21:42 | 34.50039 | 133.69278 | 19878 ft | 314 kts | 264° |
| 2026-04-14 21:42 | 34.49798 | 133.66634 | 19876 ft | 314 kts | 264° |
| 2026-04-14 21:42 | 34.49565 | 133.64079 | 19875 ft | 311 kts | 264° |
| 2026-04-14 21:42 | 34.49327 | 133.61482 | 19876 ft | 311 kts | 264° |
| 2026-04-14 21:43 | 34.49088 | 133.58872 | 19877 ft | 311 kts | 264° |
| 2026-04-14 21:43 | 34.48849 | 133.56282 | 19876 ft | 312 kts | 264° |
| 2026-04-14 21:43 | 34.48606 | 133.53650 | 19870 ft | 312 kts | 264° |
| 2026-04-14 21:43 | 34.48363 | 133.51027 | 19874 ft | 314 kts | 264° |
| 2026-04-14 21:44 | 34.48122 | 133.48413 | 19874 ft | 314 kts | 264° |
| 2026-04-14 21:44 | 34.47875 | 133.45737 | 19878 ft | 314 kts | 264° |
| 2026-04-14 21:44 | 34.47626 | 133.43074 | 19877 ft | 315 kts | 264° |
| 2026-04-14 21:44 | 34.47380 | 133.40449 | 19878 ft | 314 kts | 264° |
| 2026-04-14 21:45 | 34.47025 | 133.37833 | 19865 ft | 313 kts | 256° |
| 2026-04-14 21:45 | 34.46306 | 133.35361 | 19874 ft | 314 kts | 251° |
| 2026-04-14 21:45 | 34.45546 | 133.32960 | 19877 ft | 311 kts | 250° |
| 2026-04-14 21:45 | 34.44758 | 133.30479 | 19883 ft | 312 kts | 250° |
| 2026-04-14 21:46 | 34.43977 | 133.28014 | 19890 ft | 314 kts | 250° |
| 2026-04-14 21:46 | 34.43193 | 133.25529 | 19882 ft | 314 kts | 250° |
| 2026-04-14 21:46 | 34.42423 | 133.23090 | 19875 ft | 313 kts | 250° |
| 2026-04-14 21:46 | 34.41642 | 133.20612 | 19884 ft | 313 kts | 250° |
| 2026-04-14 21:47 | 34.40892 | 133.18240 | 19933 ft | 294 kts | 250° |
| 2026-04-14 21:47 | 34.40198 | 133.16071 | 20203 ft | 272 kts | 250° |
| 2026-04-14 21:47 | 34.39515 | 133.13945 | 20007 ft | 268 kts | 250° |
| 2026-04-14 21:47 | 34.38848 | 133.11864 | 19668 ft | 263 kts | 250° |
| 2026-04-14 21:48 | 34.38184 | 133.09796 | 19048 ft | 268 kts | 250° |
| 2026-04-14 21:48 | 34.37511 | 133.07690 | 18567 ft | 266 kts | 250° |
| 2026-04-14 21:48 | 34.36841 | 133.05595 | 18045 ft | 267 kts | 250° |
| 2026-04-14 21:48 | 34.36171 | 133.03499 | 17583 ft | 265 kts | 250° |
| 2026-04-14 21:49 | 34.35505 | 133.01419 | 17128 ft | 264 kts | 250° |
| 2026-04-14 21:49 | 34.34845 | 132.99356 | 16702 ft | 260 kts | 250° |
| 2026-04-14 21:49 | 34.34198 | 132.97334 | 16205 ft | 261 kts | 250° |
| 2026-04-14 21:49 | 34.33545 | 132.95299 | 15691 ft | 258 kts | 249° |
| 2026-04-14 21:50 | 34.32899 | 132.93288 | 15076 ft | 259 kts | 249° |
| 2026-04-14 21:50 | 34.32252 | 132.91269 | 14531 ft | 257 kts | 249° |
| 2026-04-14 21:50 | 34.31525 | 132.89351 | 13931 ft | 256 kts | 237° |
| 2026-04-14 21:50 | 34.30101 | 132.88003 | 13274 ft | 260 kts | 205° |
| 2026-04-14 21:51 | 34.28380 | 132.87360 | 12742 ft | 259 kts | 198° |
| 2026-04-14 21:51 | 34.26633 | 132.86780 | 12333 ft | 260 kts | 198° |
| 2026-04-14 21:51 | 34.24923 | 132.86220 | 12037 ft | 252 kts | 198° |
| 2026-04-14 21:51 | 34.23215 | 132.85661 | 11432 ft | 253 kts | 197° |
| 2026-04-14 21:52 | 34.21546 | 132.85113 | 10916 ft | 251 kts | 198° |
| 2026-04-14 21:52 | 34.19864 | 132.84560 | 10414 ft | 247 kts | 197° |
| 2026-04-14 21:52 | 34.18229 | 132.84019 | 9853 ft | 246 kts | 197° |
| 2026-04-14 21:52 | 34.16582 | 132.83476 | 9326 ft | 243 kts | 197° |
| 2026-04-14 21:53 | 34.14947 | 132.82932 | 8807 ft | 241 kts | 197° |
| 2026-04-14 21:53 | 34.13331 | 132.82393 | 8311 ft | 238 kts | 196° |
| 2026-04-14 21:53 | 34.11737 | 132.81860 | 7749 ft | 237 kts | 195° |
| 2026-04-14 21:53 | 34.10134 | 132.81320 | 7356 ft | 242 kts | 194° |
| 2026-04-14 21:54 | 34.08545 | 132.80760 | 7389 ft | 234 kts | 198° |
| 2026-04-14 21:54 | 34.07259 | 132.79581 | 7158 ft | 238 kts | 236° |
| 2026-04-14 21:54 | 34.06716 | 132.77698 | 7032 ft | 232 kts | 255° |
| 2026-04-14 21:54 | 34.06393 | 132.75778 | 6398 ft | 240 kts | 256° |
| 2026-04-14 21:55 | 34.06079 | 132.73779 | 5870 ft | 241 kts | 257° |
| 2026-04-14 21:55 | 34.05765 | 132.71819 | 5367 ft | 238 kts | 256° |
| 2026-04-14 21:55 | 34.05465 | 132.69875 | 4834 ft | 240 kts | 257° |
| 2026-04-14 21:55 | 34.05154 | 132.67864 | 4322 ft | 242 kts | 258° |
| 2026-04-14 21:56 | 34.04850 | 132.65872 | 3828 ft | 248 kts | 257° |
| 2026-04-14 21:56 | 34.04532 | 132.63809 | 3877 ft | 247 kts | 257° |
| 2026-04-14 21:56 | 34.04145 | 132.61809 | 3955 ft | 244 kts | 249° |
| 2026-04-14 21:56 | 34.03331 | 132.60017 | 3973 ft | 240 kts | 224° |
| 2026-04-14 21:57 | 34.02065 | 132.58727 | 4001 ft | 239 kts | 216° |
| 2026-04-14 21:57 | 34.00717 | 132.57507 | 3979 ft | 237 kts | 214° |
| 2026-04-14 21:57 | 33.99430 | 132.56372 | 3690 ft | 228 kts | 213° |
| 2026-04-14 21:57 | 33.98132 | 132.55249 | 3140 ft | 228 kts | 213° |
| 2026-04-14 21:58 | 33.96869 | 132.54161 | 2913 ft | 215 kts | 212° |
| 2026-04-14 21:58 | 33.95717 | 132.53160 | 2822 ft | 195 kts | 212° |
| 2026-04-14 21:58 | 33.94501 | 132.52580 | 2811 ft | 183 kts | 175° |
| 2026-04-14 21:58 | 33.93425 | 132.53250 | 2798 ft | 175 kts | 125° |
| 2026-04-14 21:59 | 33.92974 | 132.54584 | 2807 ft | 175 kts | 109° |
| 2026-04-14 21:59 | 33.92472 | 132.55936 | 2779 ft | 178 kts | 121° |
| 2026-04-14 21:59 | 33.91748 | 132.57172 | 2557 ft | 177 kts | 127° |
| 2026-04-14 21:59 | 33.90993 | 132.58295 | 2383 ft | 168 kts | 128° |
| 2026-04-14 22:00 | 33.90238 | 132.59383 | 2123 ft | 168 kts | 128° |
| 2026-04-14 22:00 | 33.89480 | 132.60461 | 1865 ft | 167 kts | 128° |
| 2026-04-14 22:00 | 33.88731 | 132.61517 | 1628 ft | 165 kts | 127° |
| 2026-04-14 22:00 | 33.88013 | 132.62526 | 1408 ft | 163 kts | 128° |
| 2026-04-14 22:01 | 33.87278 | 132.63562 | 1182 ft | 160 kts | 128° |
| 2026-04-14 22:01 | 33.86577 | 132.64552 | 959 ft | 150 kts | 128° |
| 2026-04-14 22:01 | 33.85914 | 132.65483 | 775 ft | 147 kts | 128° |
| 2026-04-14 22:01 | 33.85235 | 132.66432 | 585 ft | 148 kts | 128° |
| 2026-04-14 22:02 | 33.84569 | 132.67386 | 426 ft | 151 kts | 128° |
| 2026-04-14 22:02 | 33.83864 | 132.68352 | 195 ft | 155 kts | 127° |
| 2026-04-14 22:02 | 33.83202 | 132.69293 | 27 ft | 135 kts | 128° |
| 2026-04-14 22:02 | 33.82710 | 132.69987 | 17 ft | 80 kts | 131° |
| 2026-04-14 22:03 | 33.82582 | 132.70219 | 22 ft | 13 kts | 68° |
| 2026-04-14 22:03 | 33.82630 | 132.70288 | 23 ft | 9 kts | 36° |
| 2026-04-14 22:03 | 33.82666 | 132.70317 | 23 ft | 0 kts | 33° |
| 2026-04-14 22:03 | 33.82671 | 132.70322 | 23 ft | 1 kts | 45° |
| 2026-04-14 22:04 | 33.82678 | 132.70334 | 24 ft | 1 kts | 62° |
| 2026-04-14 22:04 | 33.82707 | 132.70352 | 24 ft | 6 kts | 20° |
| 2026-04-14 22:04 | 33.82742 | 132.70375 | 25 ft | 8 kts | 34° |
| 2026-04-14 22:04 | 33.82763 | 132.70403 | 26 ft | 3 kts | 63° |
| 2026-04-14 22:05 | 33.82782 | 132.70419 | 26 ft | 0 kts | 336° |
| 2026-04-14 22:09 | 33.82785 | 132.70418 | 27 ft | 3 kts | 320° |
| 2026-04-14 22:10 | 33.82722 | 132.70320 | 25 ft | 14 kts | 159° |
| 2026-04-14 22:10 | 33.82755 | 132.70377 | 26 ft | 8 kts | 41° |
| 2026-04-14 22:10 | 33.82784 | 132.70406 | 26 ft | 0 kts | 41° |